Time;durP1;ratioP1;P1;durP2;ratioP2;P2;SDS_P1;SDS_P2;PMS_P1;PMS_P2;Temp;Humidity;BMP_temperature;BMP_pressure;BME280_temperature;BME280_humidity;BME280_pressure;Samples;Min_cycle;Max_cycle;Signal;HPM_P1;HPM_P2
2021/04/12 00:01:07;;;;;;;2.73;2.53;;;5.50;99.90;;;;;;5068695;28;20273;-74
2021/04/12 00:03:45;;;;;;;2.50;2.40;;;5.50;99.90;;;;;;5069380;28;20187;-74
2021/04/12 00:06:18;;;;;;;2.50;2.40;;;5.40;99.90;;;;;;5068955;28;20195;-74
2021/04/12 00:08:50;;;;;;;2.63;2.53;;;5.50;99.90;;;;;;5068995;28;20212;-74
2021/04/12 00:11:26;;;;;;;2.77;2.57;;;5.60;99.90;;;;;;5068910;28;20192;-74
2021/04/12 00:13:58;;;;;;;2.60;2.50;;;5.80;99.90;;;;;;5068865;28;20195;-74
2021/04/12 00:16:30;;;;;;;2.07;1.97;;;6.00;99.90;;;;;;5069150;28;20215;-74
2021/04/12 00:19:03;;;;;;;2.77;2.60;;;5.90;99.90;;;;;;5068540;28;20255;-73
2021/04/12 00:21:37;;;;;;;2.70;2.50;;;5.80;99.90;;;;;;5068933;28;20195;-74
2021/04/12 00:24:10;;;;;;;2.30;2.20;;;6.00;99.90;;;;;;5068858;28;20248;-74
2021/04/12 00:26:42;;;;;;;2.70;2.50;;;5.70;99.90;;;;;;5068943;28;20226;-74
2021/04/12 00:29:15;;;;;;;2.87;2.73;;;5.60;99.90;;;;;;5068168;28;20709;-74
2021/04/12 00:31:47;;;;;;;2.63;2.50;;;5.50;99.90;;;;;;5068707;28;20195;-73
2021/04/12 00:34:21;;;;;;;2.37;2.27;;;5.60;99.90;;;;;;5068714;28;20253;-74
2021/04/12 00:36:53;;;;;;;3.90;2.80;;;5.70;99.90;;;;;;5068931;28;20665;-73
2021/04/12 00:39:28;;;;;;;2.87;2.67;;;5.90;99.90;;;;;;5068612;28;20249;-73
2021/04/12 00:42:23;;;;;;;2.80;2.50;;;6.00;99.90;;;;;;5068607;28;20235;-74
2021/04/12 00:45:08;;;;;;;2.70;2.50;;;5.80;99.90;;;;;;5068583;28;20200;-74
2021/04/12 00:47:47;;;;;;;2.73;2.53;;;5.70;99.90;;;;;;5068437;28;20646;-74
2021/04/12 00:50:30;;;;;;;2.50;2.40;;;5.90;99.90;;;;;;5068215;28;20222;-73
2021/04/12 00:53:20;;;;;;;3.07;2.77;;;5.80;99.90;;;;;;5068406;28;20227;-75
2021/04/12 00:55:52;;;;;;;3.00;2.80;;;5.80;99.90;;;;;;5068360;28;20221;-75
2021/04/12 00:58:28;;;;;;;2.50;2.40;;;5.70;99.90;;;;;;5068330;28;20195;-75
2021/04/12 01:01:07;;;;;;;3.20;3.00;;;5.80;99.90;;;;;;5067007;28;20818;-74
2021/04/12 01:03:50;;;;;;;4.07;2.90;;;5.70;99.90;;;;;;5068371;28;20198;-74
2021/04/12 01:06:28;;;;;;;2.90;2.70;;;5.60;99.90;;;;;;5068223;28;20191;-74
2021/04/12 01:09:18;;;;;;;2.83;2.63;;;5.40;99.90;;;;;;5068260;28;20222;-74
2021/04/12 01:12:02;;;;;;;3.30;3.07;;;5.40;99.90;;;;;;5067706;28;20207;-74
2021/04/12 01:15:01;;;;;;;3.37;3.07;;;5.30;99.90;;;;;;5076386;28;20260;-74
2021/04/12 01:17:54;;;;;;;3.40;3.10;;;5.30;99.90;;;;;;5088412;28;20202;-74
2021/04/12 01:21:11;;;;;;;3.13;2.93;;;5.10;99.90;;;;;;5087976;28;20570;-74
2021/04/12 01:23:58;;;;;;;3.60;3.40;;;5.20;99.90;;;;;;5088133;28;20233;-74
2021/04/12 01:27:04;;;;;;;3.40;3.20;;;5.10;99.90;;;;;;5087945;28;20673;-74
2021/04/12 01:30:03;;;;;;;3.70;3.50;;;5.10;99.90;;;;;;5088185;28;20269;-73
2021/04/12 01:33:03;;;;;;;4.63;3.20;;;5.30;99.90;;;;;;5087538;28;20210;-72
2021/04/12 01:35:36;;;;;;;3.77;3.50;;;5.40;99.90;;;;;;5088216;28;20199;-74
2021/04/12 01:38:22;;;;;;;3.30;3.10;;;5.40;99.90;;;;;;5088047;28;20191;-75
2021/04/12 01:41:13;;;;;;;3.53;3.20;;;5.40;99.90;;;;;;5088037;28;20218;-74
2021/04/12 01:44:12;;;;;;;3.67;3.37;;;5.30;99.90;;;;;;5088039;28;20215;-74
2021/04/12 01:46:45;;;;;;;3.20;3.00;;;5.40;99.90;;;;;;5088168;28;20203;-74
2021/04/12 01:49:18;;;;;;;3.20;3.00;;;5.30;99.90;;;;;;5087501;28;20577;-74
2021/04/12 01:52:00;;;;;;;3.40;3.20;;;5.30;99.90;;;;;;5088191;28;20238;-74
2021/04/12 01:54:37;;;;;;;3.17;2.97;;;5.50;99.90;;;;;;5088106;28;20202;-73
2021/04/12 01:57:16;;;;;;;2.67;2.47;;;5.50;99.90;;;;;;5087993;28;20197;-74
2021/04/12 01:59:55;;;;;;;2.97;2.70;;;5.40;99.90;;;;;;5087902;28;20241;-73
2021/04/12 02:02:36;;;;;;;2.80;2.70;;;5.30;99.90;;;;;;5088053;28;20252;-73
2021/04/12 02:05:44;;;;;;;2.83;2.63;;;5.20;99.90;;;;;;5087743;28;20191;-73
2021/04/12 02:08:19;;;;;;;2.80;2.60;;;5.20;99.90;;;;;;5052798;28;20214;-73
2021/04/12 02:11:03;;;;;;;2.80;2.60;;;5.50;99.90;;;;;;5087878;28;20226;-73
2021/04/12 02:13:42;;;;;;;2.80;2.60;;;5.60;99.90;;;;;;5091500;28;20221;-73
2021/04/12 02:16:22;;;;;;;2.73;2.53;;;5.80;99.90;;;;;;5091049;28;20230;-73
2021/04/12 02:19:23;;;;;;;2.90;2.70;;;5.70;99.90;;;;;;5091571;28;20226;-73
2021/04/12 02:22:20;;;;;;;2.57;2.37;;;5.60;99.90;;;;;;5080472;28;20296;-73
2021/04/12 02:24:56;;;;;;;2.60;2.50;;;5.50;99.90;;;;;;5076010;28;20207;-73
2021/04/12 02:27:34;;;;;;;3.00;2.80;;;5.50;99.90;;;;;;5091220;28;20191;-73
2021/04/12 02:30:06;;;;;;;2.77;2.57;;;5.50;99.90;;;;;;5091011;28;20226;-73
2021/04/12 02:32:53;;;;;;;2.80;2.60;;;5.50;99.90;;;;;;5090871;28;20664;-73
2021/04/12 02:35:30;;;;;;;2.77;2.67;;;5.50;99.90;;;;;;5091193;28;20198;-73
2021/04/12 02:38:07;;;;;;;3.33;3.13;;;5.70;99.90;;;;;;5090882;28;20668;-73
2021/04/12 02:40:49;;;;;;;3.07;2.87;;;5.70;99.90;;;;;;5090964;28;20198;-73
2021/04/12 02:43:23;;;;;;;3.60;3.30;;;5.60;99.90;;;;;;5090635;28;20575;-72
2021/04/12 02:46:47;;;;;;;3.40;3.10;;;5.50;99.90;;;;;;5090923;28;20199;-73
2021/04/12 02:49:22;;;;;;;3.30;3.00;;;5.40;99.90;;;;;;5074510;28;21068;-74
2021/04/12 02:51:59;;;;;;;3.63;3.33;;;5.60;99.90;;;;;;5090677;28;20209;-74
2021/04/12 02:54:38;;;;;;;3.40;3.20;;;5.80;99.90;;;;;;5090602;28;20202;-74
2021/04/12 02:57:25;;;;;;;3.90;3.60;;;5.80;99.90;;;;;;5090793;28;20198;-74
2021/04/12 03:00:21;;;;;;;3.50;3.30;;;5.70;99.90;;;;;;5090303;28;20664;-74
2021/04/12 03:03:02;;;;;;;3.80;3.57;;;5.60;99.90;;;;;;5090474;28;20236;-73
2021/04/12 03:06:00;;;;;;;4.00;3.70;;;5.50;99.90;;;;;;5090260;28;20596;-74
2021/04/12 03:08:49;;;;;;;4.00;3.70;;;5.60;99.90;;;;;;5089823;28;20740;-74
2021/04/12 03:11:41;;;;;;;4.70;3.47;;;5.50;99.90;;;;;;5090074;28;20234;-74
2021/04/12 03:14:26;;;;;;;3.50;3.30;;;5.60;99.90;;;;;;5086219;28;20724;-76
2021/04/12 03:17:13;;;;;;;4.03;3.47;;;5.80;99.90;;;;;;5086100;28;20971;-76
2021/04/12 03:20:18;;;;;;;3.50;3.20;;;5.90;99.90;;;;;;5076101;28;20380;-76
2021/04/12 03:23:17;;;;;;;3.57;3.27;;;5.80;99.90;;;;;;5065561;28;20676;-75
2021/04/12 03:26:11;;;;;;;4.13;3.27;;;5.70;99.90;;;;;;5065641;28;20654;-75
2021/04/12 03:28:56;;;;;;;5.33;4.83;;;5.70;99.90;;;;;;5065790;28;20196;-76
2021/04/12 03:31:43;;;;;;;5.37;3.40;;;5.80;99.90;;;;;;5065425;28;20573;-75
2021/04/12 03:34:22;;;;;;;3.03;2.80;;;5.80;99.90;;;;;;5065712;28;20195;-75
2021/04/12 03:37:20;;;;;;;3.63;3.30;;;5.80;99.90;;;;;;5066102;28;20626;-76
2021/04/12 03:39:49;;;;;;;3.00;2.73;;;5.60;99.90;;;;;;5051950;28;20230;-76
2021/04/12 03:42:36;;;;;;;2.73;2.57;;;5.50;99.90;;;;;;5086088;28;20287;-75
2021/04/12 03:45:17;;;;;;;3.30;3.00;;;5.40;99.90;;;;;;5085952;28;20195;-75
2021/04/12 03:47:58;;;;;;;3.03;2.83;;;5.40;99.90;;;;;;5075175;28;20236;-75
2021/04/12 03:50:49;;;;;;;3.03;2.80;;;5.40;99.90;;;;;;5065207;28;20679;-75
2021/04/12 03:53:45;;;;;;;3.03;2.83;;;5.40;99.90;;;;;;5051782;28;20525;-75
2021/04/12 03:56:27;;;;;;;3.93;2.60;;;5.40;99.90;;;;;;5065479;28;20196;-75
2021/04/12 03:59:09;;;;;;;3.13;2.90;;;5.50;99.90;;;;;;5070448;28;20557;-76
2021/04/12 04:02:18;;;;;;;3.10;2.90;;;5.50;99.90;;;;;;5087015;28;20252;-75
2021/04/12 04:05:10;;;;;;;4.53;2.60;;;5.70;99.90;;;;;;5089079;28;20205;-76
2021/04/12 04:08:13;;;;;;;2.67;2.43;;;5.60;99.90;;;;;;5082988;28;20677;-76
2021/04/12 04:11:14;;;;;;;2.80;2.60;;;5.40;99.90;;;;;;5073682;28;20409;-75
2021/04/12 04:13:55;;;;;;;2.83;2.53;;;5.40;99.90;;;;;;5077811;28;20202;-75
2021/04/12 04:16:33;;;;;;;3.13;2.33;;;5.30;99.90;;;;;;5076366;28;20207;-76
2021/04/12 04:19:04;;;;;;;3.03;2.83;;;5.20;99.90;;;;;;5078542;28;20218;-75
2021/04/12 04:22:00;;;;;;;2.60;2.40;;;5.20;99.90;;;;;;5078312;28;20195;-75
2021/04/12 04:25:18;;;;;;;3.17;2.67;;;5.00;99.90;;;;;;5079139;28;20616;-75
2021/04/12 04:28:08;;;;;;;4.00;2.90;;;5.10;99.90;;;;;;5077929;28;20231;-75
2021/04/12 04:31:12;;;;;;;2.73;2.50;;;5.10;99.90;;;;;;5073791;28;20227;-75
2021/04/12 04:34:14;;;;;;;2.73;2.20;;;5.30;99.90;;;;;;5077173;28;20223;-75
2021/04/12 04:37:01;;;;;;;2.53;2.17;;;5.20;99.90;;;;;;5077485;28;20195;-76
2021/04/12 04:39:47;;;;;;;2.50;2.30;;;5.20;99.90;;;;;;5076789;28;20202;-74
2021/04/12 04:42:43;;;;;;;2.70;2.30;;;5.40;99.90;;;;;;5078587;28;20194;-73
2021/04/12 04:45:22;;;;;;;2.80;2.07;;;5.50;99.90;;;;;;5067364;28;20662;-75
2021/04/12 04:48:28;;;;;;;2.20;2.10;;;5.50;99.90;;;;;;5068027;28;20196;-75
2021/04/12 04:51:09;;;;;;;2.00;1.90;;;5.40;99.90;;;;;;5067545;28;20697;-75
2021/04/12 04:53:58;;;;;;;2.60;2.40;;;5.30;99.90;;;;;;5067522;28;20196;-75
2021/04/12 04:56:32;;;;;;;1.93;1.83;;;5.20;99.90;;;;;;5086656;28;20198;-75
2021/04/12 04:59:34;;;;;;;3.40;2.07;;;5.20;99.90;;;;;;5087741;28;20586;-75
2021/04/12 05:02:26;;;;;;;2.47;2.27;;;5.00;99.90;;;;;;5088085;28;20229;-75
2021/04/12 05:05:13;;;;;;;2.90;2.20;;;5.10;99.90;;;;;;5075449;28;20192;-75
2021/04/12 05:08:01;;;;;;;2.50;2.30;;;5.20;99.90;;;;;;5075818;28;20562;-75
2021/04/12 05:10:56;;;;;;;4.20;2.57;;;5.30;99.90;;;;;;5072651;28;20218;-75
2021/04/12 05:13:40;;;;;;;1.90;1.80;;;5.30;99.90;;;;;;5074407;28;20697;-75
2021/04/12 05:16:34;;;;;;;2.50;1.90;;;5.40;99.90;;;;;;5074902;28;20231;-75
2021/04/12 05:19:40;;;;;;;1.60;1.50;;;5.30;99.90;;;;;;5076125;28;20227;-74
2021/04/12 05:22:34;;;;;;;3.73;1.60;;;5.40;99.90;;;;;;5078521;28;20202;-75
2021/04/12 05:25:21;;;;;;;1.70;1.60;;;5.60;99.90;;;;;;5077276;28;20200;-75
2021/04/12 05:28:11;;;;;;;1.70;1.60;;;5.60;99.90;;;;;;5077753;28;20260;-75
2021/04/12 05:31:18;;;;;;;1.60;1.50;;;5.60;99.90;;;;;;5070666;28;20324;-75
2021/04/12 05:34:16;;;;;;;1.87;1.60;;;5.80;99.90;;;;;;5015346;28;20231;-75
2021/04/12 05:37:08;;;;;;;1.60;1.50;;;5.60;99.90;;;;;;5004274;28;20622;-75
2021/04/12 05:39:54;;;;;;;1.87;1.50;;;5.70;99.90;;;;;;5048604;28;20684;-75
2021/04/12 05:42:32;;;;;;;2.20;1.87;;;5.90;99.90;;;;;;5077144;28;20588;-75
2021/04/12 05:45:19;;;;;;;1.70;1.60;;;5.80;99.90;;;;;;5074797;28;20199;-75
2021/04/12 05:48:17;;;;;;;3.10;1.90;;;5.50;99.90;;;;;;5080474;28;20192;-75
2021/04/12 05:51:03;;;;;;;1.97;1.77;;;5.60;99.90;;;;;;5071688;28;20237;-75
2021/04/12 05:54:08;;;;;;;2.47;1.70;;;5.40;99.90;;;;;;5078920;28;20653;-75
2021/04/12 05:56:49;;;;;;;2.40;1.93;;;5.40;99.90;;;;;;5073136;28;20207;-73
2021/04/12 05:59:51;;;;;;;3.77;1.87;;;5.30;99.90;;;;;;5076416;28;20194;-74
2021/04/12 06:02:42;;;;;;;3.30;1.83;;;5.30;99.90;;;;;;5076489;28;20188;-74
2021/04/12 06:05:18;;;;;;;2.17;1.97;;;5.20;99.90;;;;;;5078795;28;20192;-75
2021/04/12 06:08:13;;;;;;;2.53;2.10;;;5.30;99.90;;;;;;5079669;28;20297;-75
2021/04/12 06:10:50;;;;;;;3.90;1.73;;;5.40;99.90;;;;;;5078582;28;20711;-76
2021/04/12 06:13:39;;;;;;;1.87;1.70;;;5.50;99.90;;;;;;5082037;28;20191;-75
2021/04/12 06:16:20;;;;;;;1.80;1.70;;;5.60;99.90;;;;;;5078568;28;20231;-76
2021/04/12 06:19:06;;;;;;;2.37;1.87;;;5.80;99.90;;;;;;5079137;28;21049;-75
2021/04/12 06:21:53;;;;;;;2.73;1.70;;;6.00;99.90;;;;;;5080023;28;20560;-76
2021/04/12 06:24:38;;;;;;;2.23;1.70;;;6.00;99.90;;;;;;5080514;28;20665;-76
2021/04/12 06:27:48;;;;;;;4.53;1.73;;;6.00;99.90;;;;;;5075600;28;20288;-76
2021/04/12 06:30:30;;;;;;;1.73;1.63;;;5.80;99.90;;;;;;5079768;28;20294;-76
2021/04/12 06:33:21;;;;;;;2.33;1.50;;;5.90;99.90;;;;;;5080116;28;20234;-76
2021/04/12 06:36:08;;;;;;;2.23;1.20;;;6.00;99.90;;;;;;5078921;28;20184;-76
2021/04/12 06:39:11;;;;;;;2.10;1.90;;;5.90;99.90;;;;;;5079407;28;20227;-75
2021/04/12 06:42:16;;;;;;;2.00;1.30;;;5.70;99.90;;;;;;5081403;28;20200;-75
2021/04/12 06:45:13;;;;;;;2.70;1.40;;;5.60;99.90;;;;;;5078040;28;20187;-76
2021/04/12 06:48:17;;;;;;;1.43;1.30;;;5.50;99.90;;;;;;5068510;28;20211;-76
2021/04/12 06:51:13;;;;;;;4.53;1.30;;;5.60;99.90;;;;;;5077174;28;20268;-74
2021/04/12 06:54:13;;;;;;;3.07;1.60;;;5.80;99.90;;;;;;5077436;28;20484;-75
2021/04/12 06:57:29;;;;;;;1.50;1.40;;;6.00;99.90;;;;;;5077626;28;20199;-75
2021/04/12 07:00:16;;;;;;;1.90;1.27;;;6.00;99.90;;;;;;5079508;28;20196;-75
2021/04/12 07:03:20;;;;;;;1.63;1.40;;;5.80;99.90;;;;;;5079842;28;20573;-75
2021/04/12 07:06:18;;;;;;;1.67;1.57;;;5.90;99.90;;;;;;5076628;28;20696;-75
2021/04/12 07:09:07;;;;;;;1.47;1.37;;;5.90;99.90;;;;;;5077571;28;20187;-75
2021/04/12 07:12:17;;;;;;;2.53;1.20;;;6.10;99.90;;;;;;5069590;28;20203;-75
2021/04/12 07:15:15;;;;;;;2.53;1.10;;;6.20;99.90;;;;;;5069520;28;20240;-75
2021/04/12 07:18:03;;;;;;;5.93;1.20;;;6.20;99.90;;;;;;5069986;28;20299;-75
2021/04/12 07:20:50;;;;;;;2.57;1.03;;;6.00;99.90;;;;;;5069891;28;20223;-75
2021/04/12 07:23:39;;;;;;;1.63;1.20;;;5.90;99.90;;;;;;5069721;28;20207;-75
2021/04/12 07:26:28;;;;;;;2.63;1.10;;;6.10;99.90;;;;;;5069975;28;20207;-75
2021/04/12 07:29:22;;;;;;;2.00;1.20;;;6.30;99.90;;;;;;5069772;28;20203;-75
2021/04/12 07:32:08;;;;;;;1.43;0.93;;;6.10;99.90;;;;;;5069432;28;20199;-75
2021/04/12 07:35:03;;;;;;;1.37;0.93;;;5.90;99.90;;;;;;5069715;28;20260;-75
2021/04/12 07:38:09;;;;;;;4.77;1.30;;;6.00;99.90;;;;;;5068956;28;20196;-75
2021/04/12 07:41:17;;;;;;;2.50;1.50;;;6.20;99.90;;;;;;5051387;28;20203;-75
2021/04/12 07:44:36;;;;;;;2.17;1.83;;;6.30;99.90;;;;;;5077736;28;20186;-81
2021/04/12 07:47:39;;;;;;;1.33;0.93;;;6.40;99.90;;;;;;5082665;28;20653;-75
2021/04/12 07:51:01;;;;;;;1.53;1.10;;;6.40;99.90;;;;;;5068654;28;20239;-75
2021/04/12 07:54:22;;;;;;;2.03;1.50;;;6.50;99.90;;;;;;5079547;28;20191;-75
2021/04/12 07:57:30;;;;;;;3.87;1.43;;;6.70;99.90;;;;;;5077050;28;20196;-76
2021/04/12 08:00:31;;;;;;;1.07;0.90;;;6.70;99.90;;;;;;5073503;28;20249;-75
2021/04/12 08:03:37;;;;;;;3.37;1.27;;;6.60;99.90;;;;;;5077903;28;20202;-76
2021/04/12 08:07:06;;;;;;;1.23;1.13;;;6.80;99.90;;;;;;5078512;28;20689;-76
2021/04/12 08:09:54;;;;;;;1.73;1.10;;;6.90;99.90;;;;;;5077926;28;20222;-76
2021/04/12 08:12:54;;;;;;;1.27;1.27;;;6.60;99.90;;;;;;5075230;28;20202;-75
2021/04/12 08:16:04;;;;;;;3.37;1.20;;;6.70;99.90;;;;;;5077824;28;20242;-76
2021/04/12 08:18:48;;;;;;;2.33;1.13;;;6.80;99.90;;;;;;5070460;28;20223;-75
2021/04/12 08:21:59;;;;;;;1.87;1.10;;;6.60;99.90;;;;;;5077307;28;20192;-75
2021/04/12 08:24:44;;;;;;;1.57;1.47;;;6.40;99.90;;;;;;5079548;28;20198;-75
2021/04/12 08:27:42;;;;;;;1.97;1.20;;;6.20;99.90;;;;;;5088772;28;20252;-76
2021/04/12 08:30:51;;;;;;;2.10;1.40;;;6.40;99.90;;;;;;5088265;28;20284;-75
2021/04/12 08:34:07;;;;;;;3.33;1.73;;;6.60;99.90;;;;;;5088518;28;20198;-76
2021/04/12 08:37:07;;;;;;;3.63;1.20;;;7.00;99.90;;;;;;5045893;28;20196;-76
2021/04/12 08:40:13;;;;;;;3.40;1.70;;;7.10;99.90;;;;;;5045786;28;20247;-76
2021/04/12 08:43:03;;;;;;;1.47;1.23;;;7.30;99.90;;;;;;5088812;28;20186;-76
2021/04/12 08:46:04;;;;;;;3.10;1.40;;;7.40;99.90;;;;;;5087882;28;20845;-76
2021/04/12 08:48:49;;;;;;;3.03;1.63;;;7.20;99.90;;;;;;5087926;28;20206;-76
2021/04/12 08:52:10;;;;;;;1.60;1.43;;;7.00;99.90;;;;;;5088341;28;20218;-75
2021/04/12 08:54:59;;;;;;;3.20;2.20;;;6.50;99.90;;;;;;5088459;28;20233;-75
2021/04/12 08:58:00;;;;;;;2.70;1.53;;;6.50;99.90;;;;;;5088243;28;20207;-75
2021/04/12 09:01:06;;;;;;;4.10;1.57;;;6.70;99.90;;;;;;5088038;28;20195;-75
2021/04/12 09:04:10;;;;;;;4.37;1.43;;;6.80;99.90;;;;;;5082729;28;20222;-75
2021/04/12 09:07:18;;;;;;;3.50;1.60;;;6.80;99.90;;;;;;5077188;28;20202;-74
2021/04/12 09:10:12;;;;;;;1.80;1.37;;;6.80;99.90;;;;;;5081275;28;20250;-73
2021/04/12 09:12:50;;;;;;;3.50;1.50;;;6.80;99.90;;;;;;5078842;28;20201;-73
2021/04/12 09:15:46;;;;;;;2.00;1.40;;;7.00;99.90;;;;;;5075896;28;20227;-75
2021/04/12 09:18:36;;;;;;;1.80;1.20;;;6.80;99.90;;;;;;5074659;28;20219;-75
2021/04/12 09:21:13;;;;;;;1.83;1.47;;;6.80;99.90;;;;;;5077056;28;20277;-75
2021/04/12 09:24:22;;;;;;;1.83;1.37;;;7.10;99.90;;;;;;5080771;28;20187;-75
2021/04/12 09:27:20;;;;;;;1.63;1.10;;;7.20;99.90;;;;;;5045859;28;20215;-75
2021/04/12 09:30:22;;;;;;;2.03;1.50;;;7.10;99.90;;;;;;5079103;28;20215;-76
2021/04/12 09:33:31;;;;;;;3.50;1.30;;;7.20;99.90;;;;;;5081592;28;20209;-74
2021/04/12 09:36:09;;;;;;;1.77;1.30;;;7.10;99.90;;;;;;5076028;28;20191;-76
2021/04/12 09:39:00;;;;;;;2.67;1.40;;;7.10;99.90;;;;;;5079255;28;20222;-76
2021/04/12 09:42:04;;;;;;;1.47;1.00;;;7.30;99.90;;;;;;5081816;28;20199;-75
2021/04/12 09:45:14;;;;;;;2.03;1.40;;;7.50;99.90;;;;;;5076347;28;20231;-75
2021/04/12 09:48:06;;;;;;;3.30;1.30;;;7.40;99.90;;;;;;5077981;28;20223;-75
2021/04/12 09:51:06;;;;;;;2.93;1.43;;;7.30;99.90;;;;;;5078415;28;20638;-75
2021/04/12 09:54:05;;;;;;;1.47;1.30;;;7.30;99.90;;;;;;5074926;28;20573;-75
2021/04/12 09:57:05;;;;;;;1.97;1.30;;;7.50;99.90;;;;;;5078950;28;20250;-75
2021/04/12 09:59:50;;;;;;;3.80;1.07;;;7.70;99.90;;;;;;5078462;28;20730;-76
2021/04/12 10:03:00;;;;;;;2.80;1.07;;;7.80;99.90;;;;;;5076784;28;20199;-75
2021/04/12 10:06:08;;;;;;;1.20;1.17;;;7.80;99.90;;;;;;5078490;28;20191;-76
2021/04/12 10:08:40;;;;;;;2.57;2.23;;;7.60;99.90;;;;;;5078284;28;20191;-75
2021/04/12 10:11:11;;;;;;;1.80;1.10;;;7.80;99.90;;;;;;5077842;28;20219;-76
2021/04/12 10:13:42;;;;;;;1.57;1.10;;;7.80;99.90;;;;;;5075709;28;20198;-75
2021/04/12 10:16:15;;;;;;;1.73;1.30;;;7.60;99.90;;;;;;5076732;28;20227;-76
2021/04/12 10:18:45;;;;;;;4.40;1.60;;;7.60;99.90;;;;;;5078194;28;20234;-76
2021/04/12 10:21:25;;;;;;;1.17;0.80;;;7.70;99.90;;;;;;5074688;28;20192;-76
2021/04/12 10:23:55;;;;;;;4.07;1.30;;;7.40;99.90;;;;;;5081552;28;20244;-76
2021/04/12 10:26:25;;;;;;;2.80;1.43;;;7.40;99.90;;;;;;5083228;28;20211;-75
2021/04/12 10:29:01;;;;;;;4.47;1.50;;;7.50;99.90;;;;;;5077679;28;20202;-76
2021/04/12 10:31:34;;;;;;;2.67;1.20;;;7.50;99.90;;;;;;5076691;28;20592;-76
2021/04/12 10:34:11;;;;;;;2.67;1.10;;;7.50;99.90;;;;;;5079940;28;20187;-76
2021/04/12 10:36:48;;;;;;;1.63;1.00;;;7.60;99.90;;;;;;5076840;28;20187;-76
2021/04/12 10:39:26;;;;;;;1.27;1.13;;;7.80;99.90;;;;;;5074591;28;20196;-75
2021/04/12 10:41:59;;;;;;;1.93;1.50;;;7.80;99.90;;;;;;5069629;28;20195;-76
2021/04/12 10:44:32;;;;;;;1.73;1.03;;;7.80;99.90;;;;;;5069490;28;20188;-76
2021/04/12 10:47:05;;;;;;;1.27;1.17;;;7.70;99.90;;;;;;5069583;28;20199;-76
2021/04/12 10:49:49;;;;;;;2.03;1.10;;;7.50;99.90;;;;;;5069133;28;20199;-76
2021/04/12 10:52:20;;;;;;;3.27;1.33;;;7.40;99.90;;;;;;5069302;28;20250;-76
2021/04/12 10:55:08;;;;;;;3.63;0.90;;;7.50;99.90;;;;;;5069443;28;20200;-76
2021/04/12 10:57:41;;;;;;;1.90;1.10;;;7.70;99.90;;;;;;5071830;28;20200;-75
2021/04/12 11:00:41;;;;;;;3.13;1.10;;;7.80;99.90;;;;;;5071020;28;20245;-76
2021/04/12 11:03:33;;;;;;;1.90;1.23;;;7.60;99.90;;;;;;5076156;28;20196;-76
2021/04/12 11:06:16;;;;;;;2.23;1.40;;;7.50;99.90;;;;;;5076445;28;20187;-75
2021/04/12 11:08:48;;;;;;;4.00;1.07;;;7.30;99.90;;;;;;5078835;28;20261;-76
2021/04/12 11:11:19;;;;;;;1.63;1.13;;;7.30;99.90;;;;;;5075779;28;20207;-76
2021/04/12 11:16:38;;;;;;;1.20;1.10;;;7.20;99.90;;;;;;5124880;27;20515;-74
2021/04/12 11:19:17;;;;;;;1.70;1.20;;;7.20;99.90;;;;;;5111578;27;20283;-75
2021/04/12 11:22:05;;;;;;;1.10;0.87;;;7.20;99.90;;;;;;5115108;28;20205;-75
2021/04/12 11:24:38;;;;;;;1.30;1.20;;;7.30;99.90;;;;;;5116522;28;20205;-74
2021/04/12 11:27:50;;;;;;;1.23;0.70;;;7.20;99.90;;;;;;5110807;28;20198;-75
2021/04/12 11:30:23;;;;;;;1.37;0.77;;;7.20;99.90;;;;;;5113621;28;20243;-75
2021/04/12 11:33:38;;;;;;;2.43;0.87;;;7.10;99.90;;;;;;5116686;27;20187;-75
2021/04/12 11:36:14;;;;;;;1.20;0.93;;;7.10;99.90;;;;;;5114969;28;20218;-75
2021/04/12 11:38:46;;;;;;;0.90;0.80;;;7.10;99.90;;;;;;5114620;28;20228;-75
2021/04/12 11:41:18;;;;;;;0.73;0.73;;;7.20;99.90;;;;;;5098413;28;20611;-75
2021/04/12 11:43:47;;;;;;;1.47;1.17;;;7.20;99.90;;;;;;5098964;28;20186;-73
2021/04/12 11:46:21;;;;;;;1.17;1.00;;;7.20;99.90;;;;;;5101632;28;20612;-73
2021/04/12 11:48:51;;;;;;;1.00;0.67;;;7.40;99.90;;;;;;5099062;28;20189;-75
2021/04/12 11:51:33;;;;;;;2.00;0.70;;;7.40;99.90;;;;;;5117408;28;20209;-76
2021/04/12 11:54:02;;;;;;;2.10;1.07;;;7.50;99.90;;;;;;5114228;28;20193;-75
2021/04/12 11:56:36;;;;;;;1.70;0.90;;;7.40;99.90;;;;;;5113099;28;20209;-75
2021/04/12 11:59:08;;;;;;;0.90;0.80;;;7.30;99.90;;;;;;5113453;27;20190;-75
2021/04/12 12:01:43;;;;;;;3.47;1.07;;;7.30;99.90;;;;;;5111435;28;20199;-75
2021/04/12 12:04:16;;;;;;;4.53;1.13;;;7.50;99.90;;;;;;5115390;27;20190;-75
2021/04/12 12:06:54;;;;;;;1.23;0.80;;;7.70;99.90;;;;;;5114292;28;20537;-75
2021/04/12 12:09:35;;;;;;;2.80;0.97;;;7.90;99.90;;;;;;5113218;28;20189;-75
2021/04/12 12:12:10;;;;;;;1.27;0.60;;;8.00;99.90;;;;;;5107857;28;20196;-75
2021/04/12 12:14:40;;;;;;;1.43;0.77;;;8.00;99.90;;;;;;5110728;28;20237;-75
2021/04/12 12:17:14;;;;;;;2.03;0.87;;;8.20;99.90;;;;;;5122414;27;20190;-75
2021/04/12 12:19:47;;;;;;;1.47;0.53;;;8.40;99.90;;;;;;5125751;27;20201;-75
2021/04/12 12:22:20;;;;;;;3.20;1.03;;;8.60;99.90;;;;;;5125353;27;20193;-75
2021/04/12 12:24:55;;;;;;;1.93;1.37;;;8.40;99.90;;;;;;5125278;27;20201;-75
2021/04/12 12:27:27;;;;;;;2.67;0.90;;;8.50;99.90;;;;;;5113766;27;20190;-76
2021/04/12 12:30:01;;;;;;;2.40;0.97;;;8.60;99.90;;;;;;5110646;28;20210;-75
2021/04/12 12:32:51;;;;;;;1.47;1.00;;;8.70;99.90;;;;;;5111337;28;20330;-75
2021/04/12 12:35:33;;;;;;;2.07;1.00;;;8.50;99.90;;;;;;5111014;28;20226;-75
2021/04/12 12:38:23;;;;;;;4.77;1.60;;;8.40;99.90;;;;;;5111574;28;20199;-76
2021/04/12 12:40:52;;;;;;;1.10;0.80;;;8.40;99.90;;;;;;5111231;28;20669;-76
2021/04/12 12:43:24;;;;;;;2.27;1.07;;;8.60;99.90;;;;;;5111192;28;20209;-75
2021/04/12 12:45:52;;;;;;;6.07;1.80;;;8.80;99.90;;;;;;5111091;27;20251;-76
2021/04/12 12:48:22;;;;;;;1.17;1.03;;;8.90;99.90;;;;;;5111057;28;20209;-75
2021/04/12 12:50:52;;;;;;;7.90;2.30;;;9.00;99.90;;;;;;5110745;28;20619;-76
2021/04/12 12:53:25;;;;;;;4.57;1.53;;;8.90;99.90;;;;;;5110823;28;20203;-75
2021/04/12 12:55:54;;;;;;;3.20;1.17;;;8.80;99.90;;;;;;5111190;28;20225;-76
2021/04/12 12:58:23;;;;;;;1.20;1.00;;;8.60;99.90;;;;;;5111186;28;20242;-76
2021/04/12 13:00:51;;;;;;;3.60;1.10;;;8.20;99.90;;;;;;5110628;28;21096;-75
2021/04/12 13:03:27;;;;;;;4.10;1.00;;;8.30;99.90;;;;;;5093940;28;20203;-75
2021/04/12 13:05:56;;;;;;;3.10;0.97;;;8.40;99.90;;;;;;5087428;28;20195;-78
2021/04/12 13:08:26;;;;;;;4.13;1.50;;;8.20;99.90;;;;;;5073850;28;20208;-75
2021/04/12 13:10:54;;;;;;;3.47;1.10;;;8.30;99.90;;;;;;5070213;28;20229;-76
2021/04/12 13:13:30;;;;;;;1.47;1.07;;;8.40;99.90;;;;;;5070059;28;20208;-75
2021/04/12 13:16:09;;;;;;;2.57;0.90;;;8.30;99.90;;;;;;5069234;28;20239;-75
2021/04/12 13:18:38;;;;;;;3.03;1.33;;;8.40;99.90;;;;;;5069509;28;20308;-75
2021/04/12 13:21:11;;;;;;;2.13;0.83;;;8.50;99.90;;;;;;5069788;28;20200;-75
2021/04/12 13:23:51;;;;;;;3.53;1.20;;;8.50;99.90;;;;;;5084778;28;20633;-75
2021/04/12 13:26:23;;;;;;;2.60;1.00;;;8.60;99.90;;;;;;5090089;28;20202;-76
2021/04/12 13:28:50;;;;;;;4.27;0.90;;;8.80;99.90;;;;;;5090368;28;20191;-75
2021/04/12 13:31:21;;;;;;;2.33;1.10;;;8.70;99.10;;;;;;5089811;28;20207;-75
2021/04/12 13:33:50;;;;;;;3.77;1.00;;;8.60;99.90;;;;;;5090090;28;20210;-75
2021/04/12 13:36:20;;;;;;;3.00;1.10;;;8.60;99.90;;;;;;5089529;28;20702;-75
2021/04/12 13:38:49;;;;;;;1.97;0.97;;;8.70;99.90;;;;;;5082528;28;20227;-76
2021/04/12 13:41:21;;;;;;;2.60;1.17;;;8.60;99.90;;;;;;5083565;28;20202;-75
2021/04/12 13:43:51;;;;;;;4.77;1.20;;;8.60;99.90;;;;;;5089484;28;20639;-75
2021/04/12 13:46:21;;;;;;;2.30;1.13;;;8.60;99.90;;;;;;5096580;28;20610;-75
2021/04/12 13:48:59;;;;;;;2.37;1.23;;;8.70;99.90;;;;;;5096541;28;20220;-75
2021/04/12 13:51:32;;;;;;;1.50;1.00;;;8.70;99.90;;;;;;5095425;28;20198;-75
2021/04/12 13:54:07;;;;;;;2.67;1.00;;;8.80;99.80;;;;;;5097943;28;20191;-75
2021/04/12 13:56:42;;;;;;;1.33;0.90;;;9.00;99.70;;;;;;5103052;28;20213;-75
2021/04/12 13:59:19;;;;;;;1.33;0.90;;;8.90;98.10;;;;;;5095028;28;20232;-75
2021/04/12 14:01:51;;;;;;;1.07;0.80;;;8.80;97.50;;;;;;5099299;28;20194;-75
2021/04/12 14:04:21;;;;;;;1.17;0.63;;;8.70;97.60;;;;;;5097621;28;20226;-74
2021/04/12 14:06:56;;;;;;;4.43;1.23;;;8.60;97.30;;;;;;5092085;28;20202;-75
2021/04/12 14:09:30;;;;;;;2.20;1.10;;;8.70;98.40;;;;;;5092986;28;20191;-75
2021/04/12 14:11:59;;;;;;;0.70;0.70;;;8.90;97.90;;;;;;5103376;28;20260;-75
2021/04/12 14:14:28;;;;;;;1.90;1.00;;;8.90;98.00;;;;;;5099660;28;20659;-75
2021/04/12 14:17:01;;;;;;;1.27;0.73;;;9.10;98.00;;;;;;5097584;28;20207;-75
2021/04/12 14:19:33;;;;;;;1.67;1.17;;;9.00;97.20;;;;;;5103756;28;20216;-75
2021/04/12 14:22:10;;;;;;;1.93;0.70;;;8.80;97.80;;;;;;5094190;28;20191;-73
2021/04/12 14:24:42;;;;;;;1.67;0.70;;;8.90;98.40;;;;;;5089284;28;20191;-73
2021/04/12 14:27:15;;;;;;;2.17;1.20;;;9.00;98.30;;;;;;5104490;28;20215;-75
2021/04/12 14:29:47;;;;;;;2.40;0.87;;;8.90;98.30;;;;;;5099690;28;20247;-75
2021/04/12 14:32:19;;;;;;;1.67;0.83;;;8.90;98.10;;;;;;5099922;28;20641;-74
2021/04/12 14:34:50;;;;;;;1.00;0.60;;;8.90;98.60;;;;;;5074609;28;20681;-75
2021/04/12 14:37:26;;;;;;;0.93;0.57;;;9.10;98.80;;;;;;5098839;28;20190;-74